Time;durP1;ratioP1;P1;durP2;ratioP2;P2;SDS_P1;SDS_P2;PMS_P1;PMS_P2;Temp;Humidity;BMP_temperature;BMP_pressure;BME280_temperature;BME280_humidity;BME280_pressure;Samples;Min_cycle;Max_cycle;Signal;HPM_P1;HPM_P2
2021/12/31 00:01:32;;;;;;;7.88;3.28;;;11.30;99.90;;;10.42;100.00;98290.94;4962448;28;20051;-71
2021/12/31 00:04:00;;;;;;;12.02;4.63;;;11.40;99.90;;;10.37;100.00;98286.75;4961885;28;20125;-71
2021/12/31 00:06:27;;;;;;;10.55;3.25;;;11.30;99.90;;;10.36;100.00;98292.84;4960133;28;20073;-70
2021/12/31 00:08:54;;;;;;;7.75;3.63;;;11.30;99.90;;;10.33;100.00;98286.00;4981102;28;20055;-70
2021/12/31 00:11:22;;;;;;;14.52;4.65;;;11.30;99.90;;;10.32;100.00;98292.09;4968268;28;20054;-70
2021/12/31 00:13:49;;;;;;;13.25;4.15;;;11.30;99.90;;;10.32;100.00;98292.09;4957421;28;20051;-71
2021/12/31 00:16:16;;;;;;;16.85;4.95;;;11.20;99.90;;;10.30;100.00;98295.63;4960196;28;20473;-71
2021/12/31 00:18:43;;;;;;;13.13;4.22;;;11.20;99.90;;;10.28;100.00;98293.03;4960480;28;20066;-69
2021/12/31 00:21:10;;;;;;;14.07;4.50;;;11.30;99.90;;;10.34;100.00;98294.66;4961500;28;20055;-69
2021/12/31 00:23:37;;;;;;;16.63;4.47;;;11.30;99.90;;;10.30;100.00;98296.47;4962703;28;20062;-71
2021/12/31 00:26:04;;;;;;;12.20;4.20;;;11.20;99.90;;;10.36;100.00;98298.03;4966297;28;20061;-69
2021/12/31 00:28:32;;;;;;;16.10;3.97;;;11.20;99.90;;;10.35;100.00;98297.16;4967321;28;20094;-71
2021/12/31 00:31:00;;;;;;;16.88;4.57;;;11.20;99.90;;;10.34;100.00;98297.25;4963141;28;20110;-71
2021/12/31 00:33:28;;;;;;;14.95;4.78;;;11.20;99.90;;;10.31;100.00;98290.41;4958612;28;20270;-71
2021/12/31 00:35:55;;;;;;;12.10;4.40;;;11.20;99.90;;;10.29;100.00;98294.78;4965431;28;20545;-71
2021/12/31 00:38:22;;;;;;;17.17;4.55;;;11.30;99.90;;;10.30;100.00;98288.69;4961553;28;20086;-71
2021/12/31 00:40:49;;;;;;;10.98;4.25;;;11.20;99.90;;;10.27;100.00;98288.75;4963598;28;20062;-71
2021/12/31 00:43:17;;;;;;;14.95;4.50;;;11.20;99.90;;;10.36;100.00;98290.25;4958495;28;20343;-71
2021/12/31 00:45:44;;;;;;;20.05;4.40;;;11.20;99.90;;;10.27;100.00;98287.00;4961617;28;20046;-71
2021/12/31 00:48:13;;;;;;;12.27;4.50;;;11.20;99.90;;;10.26;100.00;98284.44;4960797;28;20539;-71
2021/12/31 00:50:41;;;;;;;12.88;3.78;;;11.20;99.90;;;10.30;100.00;98274.88;4963783;28;20085;-69
2021/12/31 00:53:09;;;;;;;12.65;4.93;;;11.20;99.90;;;10.23;100.00;98274.16;4960764;28;20133;-71
2021/12/31 00:55:36;;;;;;;11.90;4.22;;;11.20;99.90;;;10.19;100.00;98281.19;4958873;28;20177;-71
2021/12/31 00:58:06;;;;;;;12.02;4.85;;;11.20;99.90;;;10.20;100.00;98267.34;4963126;28;20038;-69
2021/12/31 01:00:34;;;;;;;20.27;5.53;;;11.20;99.90;;;10.24;100.00;98273.25;4960931;28;20118;-69
2021/12/31 01:03:02;;;;;;;9.65;4.85;;;11.20;99.90;;;10.28;100.00;98261.91;4956510;28;20101;-71
2021/12/31 01:05:30;;;;;;;13.68;5.43;;;11.10;99.90;;;10.24;100.00;98263.75;4956426;28;20113;-69
2021/12/31 01:07:58;;;;;;;14.32;5.38;;;11.10;99.90;;;10.25;100.00;98256.81;4954967;28;20059;-69
2021/12/31 01:10:27;;;;;;;11.63;4.75;;;11.20;99.90;;;10.26;100.00;98264.56;4958307;28;20054;-69
2021/12/31 01:12:55;;;;;;;15.65;5.50;;;11.20;99.90;;;10.18;100.00;98265.69;4957104;28;20047;-69
2021/12/31 01:15:46;;;;;;;13.35;5.40;;;11.20;99.90;;;10.22;100.00;98273.31;4957960;28;20047;-70
2021/12/31 01:20:39;;;;;;;17.90;5.50;;;11.20;99.90;;;10.34;100.00;98269.53;4955096;28;20054;-70
2021/12/31 01:23:09;;;;;;;13.85;4.97;;;11.20;99.90;;;10.33;100.00;98270.44;4953918;28;20057;-69
2021/12/31 01:25:36;;;;;;;15.20;4.90;;;11.30;99.90;;;10.25;100.00;98262.00;4959911;28;20058;-71
2021/12/31 01:28:05;;;;;;;12.02;3.92;;;11.20;99.90;;;10.39;100.00;98256.41;4954092;28;20408;-69
2021/12/31 01:30:33;;;;;;;9.55;3.78;;;11.30;99.90;;;10.38;100.00;98260.78;4954229;28;20110;-71
2021/12/31 01:33:00;;;;;;;7.30;3.42;;;11.30;99.90;;;10.41;100.00;98260.66;4955723;28;20057;-68
2021/12/31 01:35:27;;;;;;;9.65;3.17;;;11.30;99.90;;;10.39;100.00;98261.59;4958942;28;20077;-69
2021/12/31 01:37:55;;;;;;;10.13;3.22;;;11.30;99.90;;;10.43;100.00;98264.06;4963311;28;20153;-71
2021/12/31 01:40:22;;;;;;;6.88;2.88;;;11.30;99.90;;;10.46;100.00;98257.94;4961669;28;20490;-71
2021/12/31 01:42:52;;;;;;;8.50;3.15;;;11.30;99.90;;;10.47;100.00;98262.22;4963159;28;20085;-69
2021/12/31 01:45:21;;;;;;;9.95;3.15;;;11.30;99.90;;;10.46;100.00;98260.53;4959804;28;20054;-69
2021/12/31 01:50:16;;;;;;;5.85;3.03;;;11.30;99.90;;;10.41;100.00;98252.88;4958653;28;20114;-69
2021/12/31 01:52:44;;;;;;;10.43;3.15;;;11.30;99.90;;;10.36;100.00;98251.34;4969298;28;20450;-68
2021/12/31 01:55:13;;;;;;;11.52;3.25;;;11.30;99.90;;;10.38;100.00;98252.16;4966458;28;20508;-69
2021/12/31 01:57:46;;;;;;;10.85;3.85;;;11.30;99.90;;;10.32;100.00;98257.50;4974902;28;20053;-69
2021/12/31 02:00:14;;;;;;;7.65;3.03;;;11.20;99.90;;;10.37;100.00;98246.06;4971414;28;20119;-69
2021/12/31 02:02:49;;;;;;;8.88;2.28;;;11.30;99.90;;;10.39;100.00;98259.03;4973619;28;20388;-69
2021/12/31 02:05:17;;;;;;;10.48;2.53;;;11.20;99.90;;;10.33;100.00;98259.19;4965961;28;20078;-71
2021/12/31 02:07:52;;;;;;;9.15;2.72;;;11.20;99.90;;;10.40;100.00;98260.69;4970252;28;20372;-69
2021/12/31 02:10:20;;;;;;;8.43;2.35;;;11.20;99.90;;;10.55;100.00;98268.00;4964600;28;20454;-69
2021/12/31 02:12:49;;;;;;;5.82;2.58;;;11.20;99.90;;;10.56;100.00;98255.88;4967359;28;20046;-68
2021/12/31 02:15:19;;;;;;;13.13;2.72;;;11.30;99.90;;;10.47;100.00;98257.03;4962687;28;20073;-69
2021/12/31 02:17:48;;;;;;;10.55;2.40;;;11.30;99.90;;;10.35;100.00;98263.44;4964725;28;20043;-71
2021/12/31 02:20:19;;;;;;;5.72;2.20;;;11.30;99.90;;;10.39;100.00;98269.41;4965424;28;20077;-71
2021/12/31 02:22:54;;;;;;;9.93;2.42;;;11.30;99.90;;;10.37;100.00;98271.19;4969605;28;20078;-70
2021/12/31 02:25:24;;;;;;;7.00;2.30;;;11.30;99.90;;;10.37;100.00;98268.59;4964908;28;20062;-71
2021/12/31 02:27:53;;;;;;;6.25;1.80;;;11.30;99.90;;;10.36;100.00;98257.38;4962246;28;20062;-70
2021/12/31 02:30:21;;;;;;;7.75;2.28;;;11.20;99.90;;;10.33;100.00;98254.00;4964420;28;20054;-69
2021/12/31 02:32:48;;;;;;;6.68;2.22;;;11.20;99.90;;;10.24;100.00;98255.97;4965127;28;20047;-70
2021/12/31 02:35:19;;;;;;;8.95;2.40;;;11.20;99.90;;;10.34;100.00;98256.56;4966194;28;20510;-70
2021/12/31 02:37:47;;;;;;;7.22;2.33;;;11.20;99.90;;;10.27;100.00;98262.81;4967814;28;20126;-71
2021/12/31 02:40:17;;;;;;;8.57;2.38;;;11.20;99.90;;;10.29;100.00;98275.78;4968956;28;20165;-71
2021/12/31 02:42:48;;;;;;;6.45;2.53;;;11.20;99.90;;;10.27;100.00;98276.63;4956823;28;20055;-71
2021/12/31 02:45:21;;;;;;;10.27;2.35;;;11.20;99.90;;;10.31;100.00;98272.25;4965678;28;20138;-70
2021/12/31 02:47:48;;;;;;;4.80;2.15;;;11.20;99.90;;;10.33;100.00;98280.81;4962456;28;20513;-71
2021/12/31 02:50:19;;;;;;;6.28;2.13;;;11.20;99.90;;;10.34;100.00;98273.88;4964677;28;20061;-71
2021/12/31 02:52:50;;;;;;;8.00;2.22;;;11.20;99.90;;;10.42;100.00;98271.88;4963952;28;20162;-69
2021/12/31 02:55:18;;;;;;;5.25;1.80;;;11.30;99.90;;;10.33;100.00;98277.34;4967965;28;20063;-71
2021/12/31 02:57:47;;;;;;;6.95;2.03;;;11.20;99.90;;;10.32;100.00;98280.88;4969880;28;20050;-70
2021/12/31 03:00:15;;;;;;;7.95;2.28;;;11.30;99.90;;;10.37;100.00;98276.38;4949234;28;20050;-71
2021/12/31 03:02:43;;;;;;;7.00;2.20;;;11.20;99.90;;;10.35;100.00;98278.16;4967122;28;20082;-71
2021/12/31 03:05:11;;;;;;;4.22;2.03;;;11.20;99.90;;;10.26;100.00;98279.25;4973186;28;20050;-71
2021/12/31 03:07:45;;;;;;;9.60;2.50;;;11.20;99.90;;;10.26;100.00;98274.94;4960339;28;20047;-71
2021/12/31 03:10:14;;;;;;;7.10;2.30;;;11.20;99.90;;;10.29;100.00;98276.63;4973465;28;20050;-71
2021/12/31 03:12:42;;;;;;;8.52;2.00;;;11.20;99.90;;;10.35;100.00;98268.63;4972636;28;20779;-70
2021/12/31 03:15:11;;;;;;;8.95;2.58;;;11.20;99.90;;;10.39;100.00;98267.66;4960497;28;20047;-70
2021/12/31 03:17:43;;;;;;;8.23;2.30;;;11.30;99.90;;;10.33;100.00;98267.84;4967107;28;20553;-71
2021/12/31 03:20:16;;;;;;;6.47;2.10;;;11.20;99.90;;;10.39;100.00;98256.41;4966152;28;20045;-71
2021/12/31 03:22:44;;;;;;;6.82;2.20;;;11.20;99.90;;;10.33;100.00;98260.06;4964520;28;20058;-71
2021/12/31 03:25:12;;;;;;;8.25;2.15;;;11.20;99.90;;;10.30;100.00;98246.31;4967169;28;20083;-71
2021/12/31 03:27:42;;;;;;;6.28;2.40;;;11.20;99.90;;;10.32;100.00;98250.56;4962480;28;20046;-71
2021/12/31 03:30:13;;;;;;;7.05;1.95;;;11.20;99.90;;;10.34;100.00;98253.97;4970032;28;20105;-70
2021/12/31 03:32:41;;;;;;;7.75;2.05;;;11.20;99.90;;;10.37;100.00;98251.28;4964820;28;20683;-71
2021/12/31 03:35:16;;;;;;;7.00;1.95;;;11.20;99.90;;;10.27;100.00;98253.28;4970033;28;20042;-71
2021/12/31 03:37:49;;;;;;;5.10;1.70;;;11.20;99.90;;;10.24;100.00;98255.97;4964985;28;20054;-70
2021/12/31 03:40:21;;;;;;;8.10;2.03;;;11.20;99.90;;;10.29;100.00;98255.03;4968719;28;20528;-71
2021/12/31 03:42:54;;;;;;;6.97;1.83;;;11.20;99.90;;;10.32;100.00;98257.50;4966552;28;20499;-71
2021/12/31 03:45:21;;;;;;;5.25;1.60;;;11.20;99.90;;;10.23;100.00;98261.19;4971596;28;20082;-70
2021/12/31 03:47:49;;;;;;;9.93;2.20;;;11.20;99.90;;;10.20;100.00;98256.94;4967239;28;20062;-71
2021/12/31 03:50:16;;;;;;;6.57;1.85;;;11.20;99.90;;;10.26;100.00;98258.50;4968603;28;20046;-71
2021/12/31 03:52:44;;;;;;;8.55;2.10;;;11.10;99.90;;;10.16;100.00;98249.31;4972440;28;20109;-71
2021/12/31 03:55:12;;;;;;;10.43;2.20;;;11.10;99.90;;;10.14;100.00;98243.31;4987309;28;20058;-70
2021/12/31 03:57:40;;;;;;;6.55;2.28;;;11.00;99.90;;;10.10;100.00;98259.84;4966759;28;20043;-71
2021/12/31 04:00:12;;;;;;;7.68;2.05;;;11.00;99.90;;;10.09;100.00;98253.00;4971256;28;20051;-71
2021/12/31 04:02:39;;;;;;;4.88;1.92;;;11.00;99.90;;;10.20;100.00;98258.72;4968089;28;20055;-71
2021/12/31 04:05:07;;;;;;;6.93;2.22;;;11.00;99.90;;;10.13;100.00;98252.84;4966587;28;20114;-71
2021/12/31 04:07:35;;;;;;;5.78;2.60;;;11.00;99.90;;;10.08;100.00;98246.97;4967509;28;20462;-70
2021/12/31 04:10:04;;;;;;;7.05;2.55;;;11.00;99.90;;;10.09;100.00;98240.84;4966761;28;20126;-71
2021/12/31 04:12:31;;;;;;;10.45;2.10;;;11.00;99.90;;;10.11;100.00;98241.66;4969578;28;20047;-70
2021/12/31 04:15:06;;;;;;;6.03;1.95;;;11.00;99.90;;;10.07;100.00;98237.47;4970357;28;20085;-71
2021/12/31 04:17:33;;;;;;;7.15;2.25;;;11.00;99.90;;;10.17;100.00;98240.63;4969366;28;20058;-71
2021/12/31 04:20:00;;;;;;;7.80;2.42;;;11.00;99.90;;;10.13;100.00;98231.25;4970676;28;20069;-70
2021/12/31 04:22:30;;;;;;;7.22;2.33;;;11.00;99.90;;;10.07;100.00;98228.84;4965611;28;20058;-70
2021/12/31 04:24:58;;;;;;;9.25;2.75;;;11.00;99.90;;;10.00;100.00;98213.44;4973343;28;20425;-70
2021/12/31 04:27:25;;;;;;;8.32;2.70;;;10.90;99.90;;;9.89;100.00;98218.09;4971289;28;20120;-71
2021/12/31 04:29:53;;;;;;;5.50;2.17;;;10.90;99.90;;;9.94;100.00;98220.56;4969143;28;20082;-71
2021/12/31 04:32:23;;;;;;;5.60;2.45;;;10.80;99.90;;;9.92;100.00;98215.44;4967472;28;20134;-70
2021/12/31 04:34:52;;;;;;;12.13;3.10;;;10.80;99.90;;;9.80;100.00;98215.78;4966914;28;20058;-70
2021/12/31 04:37:21;;;;;;;7.78;2.65;;;10.70;99.90;;;9.72;100.00;98199.63;4968273;28;20042;-70
2021/12/31 04:39:49;;;;;;;8.20;3.03;;;10.70;99.90;;;9.53;100.00;98201.88;4966621;28;20055;-71
2021/12/31 04:42:16;;;;;;;8.55;3.05;;;10.50;99.90;;;9.39;100.00;98205.69;4968424;28;20058;-71
2021/12/31 04:44:44;;;;;;;8.77;3.22;;;10.40;99.90;;;9.33;100.00;98202.44;4970845;28;20050;-70
2021/12/31 04:47:14;;;;;;;7.38;3.22;;;10.30;99.90;;;9.23;100.00;98208.75;4967567;28;20185;-70
2021/12/31 04:49:42;;;;;;;8.63;2.75;;;10.20;99.90;;;9.26;100.00;98204.34;4967767;28;20117;-70
2021/12/31 04:52:10;;;;;;;9.32;3.25;;;10.20;99.90;;;9.14;100.00;98209.84;4964628;28;20485;-71
2021/12/31 04:54:37;;;;;;;9.43;3.42;;;10.10;99.90;;;9.10;100.00;98208.22;4970695;28;20399;-71
2021/12/31 04:57:07;;;;;;;10.25;3.67;;;10.10;99.90;;;9.07;100.00;98209.16;4965301;28;20488;-71
2021/12/31 04:59:35;;;;;;;8.68;3.25;;;10.00;99.90;;;9.02;100.00;98218.78;4970303;28;20447;-71
2021/12/31 05:02:03;;;;;;;7.88;3.60;;;10.00;99.90;;;8.91;100.00;98216.47;4967340;28;20050;-71
2021/12/31 05:04:31;;;;;;;9.82;3.80;;;9.90;99.90;;;8.81;100.00;98202.09;4969032;28;20535;-70
2021/12/31 05:07:01;;;;;;;12.75;3.63;;;9.80;99.90;;;8.64;100.00;98210.25;4964729;28;20065;-70
2021/12/31 05:09:30;;;;;;;15.30;4.30;;;9.80;99.90;;;8.64;100.00;98212.84;4968490;28;20519;-71
2021/12/31 05:12:01;;;;;;;9.60;3.88;;;9.70;99.90;;;8.55;100.00;98207.88;4968059;28;20582;-70
2021/12/31 05:14:29;;;;;;;10.98;4.00;;;9.70;99.90;;;8.52;100.00;98207.97;4966941;28;20133;-71
2021/12/31 05:16:58;;;;;;;8.98;3.22;;;9.60;99.90;;;8.57;100.00;98203.53;4967590;28;20059;-71
2021/12/31 05:19:25;;;;;;;8.95;3.40;;;9.60;99.90;;;8.50;100.00;98205.41;4961650;28;20452;-70
2021/12/31 05:21:53;;;;;;;10.40;3.50;;;9.50;99.90;;;8.47;100.00;98197.75;4964716;28;20131;-71
2021/12/31 05:24:21;;;;;;;7.45;3.55;;;9.50;99.90;;;8.53;100.00;98195.00;4962479;28;20054;-71
2021/12/31 05:26:48;;;;;;;11.68;4.43;;;9.50;99.90;;;8.42;100.00;98199.59;4963071;28;20051;-71
2021/12/31 05:29:15;;;;;;;9.15;2.80;;;9.40;99.90;;;8.42;100.00;98204.78;4972378;28;20047;-71
2021/12/31 05:31:43;;;;;;;11.52;5.63;;;9.40;99.90;;;8.40;100.00;98209.13;4970764;28;20043;-71
2021/12/31 05:34:10;;;;;;;9.93;5.20;;;9.40;99.90;;;8.30;100.00;98215.34;4972296;28;20050;-71
2021/12/31 05:36:37;;;;;;;11.80;4.22;;;9.40;99.90;;;8.34;100.00;98199.72;4968894;28;20050;-70
2021/12/31 05:39:05;;;;;;;11.77;4.15;;;9.40;99.90;;;8.36;100.00;98203.13;4973056;28;20397;-70
2021/12/31 05:41:34;;;;;;;9.05;3.70;;;9.30;99.90;;;8.41;100.00;98204.78;4971133;28;20188;-70
2021/12/31 05:44:01;;;;;;;12.60;4.07;;;9.20;99.90;;;8.15;100.00;98212.25;4969832;28;20065;-71
2021/12/31 05:46:29;;;;;;;6.97;3.47;;;9.20;99.90;;;8.17;100.00;98207.03;4966474;28;20061;-70
2021/12/31 05:48:56;;;;;;;12.77;5.22;;;9.20;99.90;;;8.01;100.00;98216.03;4969241;28;20531;-70
2021/12/31 05:51:27;;;;;;;14.00;5.43;;;9.20;99.90;;;7.84;100.00;98224.97;4964651;28;20065;-70
2021/12/31 05:53:55;;;;;;;9.98;4.38;;;9.10;99.90;;;7.86;100.00;98212.88;4970441;28;20066;-71
2021/12/31 05:56:22;;;;;;;11.55;4.38;;;9.10;99.90;;;7.93;100.00;98218.78;4965922;28;20159;-70
2021/12/31 05:58:50;;;;;;;14.32;5.15;;;9.00;99.90;;;7.88;100.00;98210.28;4964050;28;20070;-71
2021/12/31 06:01:20;;;;;;;8.82;3.47;;;8.90;99.90;;;7.88;100.00;98221.44;4968112;28;20046;-71
2021/12/31 06:03:48;;;;;;;7.68;3.85;;;8.90;99.90;;;7.88;100.00;98231.78;4970410;28;20043;-71
2021/12/31 06:06:18;;;;;;;16.65;6.95;;;8.80;99.90;;;7.75;100.00;98233.81;4987951;28;20054;-70
2021/12/31 06:08:51;;;;;;;8.77;5.05;;;8.80;99.90;;;7.77;100.00;98251.00;4974054;28;20166;-71
2021/12/31 06:11:19;;;;;;;11.48;6.38;;;8.90;99.90;;;7.69;100.00;98243.41;4968673;28;20051;-70
2021/12/31 06:13:54;;;;;;;9.13;4.15;;;8.90;99.90;;;7.84;100.00;98237.06;4942482;28;20124;-71
2021/12/31 06:16:24;;;;;;;15.48;4.30;;;8.80;99.90;;;7.78;100.00;98239.75;4966342;28;20081;-70
2021/12/31 06:18:51;;;;;;;11.98;4.15;;;8.80;99.90;;;7.73;100.00;98226.94;4967865;28;20102;-71
2021/12/31 06:21:19;;;;;;;17.92;5.68;;;8.80;99.90;;;7.65;100.00;98234.84;4961334;28;20419;-71
2021/12/31 06:23:46;;;;;;;11.77;6.00;;;8.70;99.90;;;7.50;100.00;98219.66;4968542;28;20055;-71
2021/12/31 06:26:30;;;;;;;11.60;6.00;;;8.70;99.90;;;7.41;100.00;98210.38;4966517;28;20059;-70
2021/12/31 06:29:00;;;;;;;13.32;6.25;;;8.50;99.90;;;7.58;100.00;98215.19;4961470;28;20054;-71
2021/12/31 06:31:28;;;;;;;9.30;4.53;;;8.40;99.90;;;7.68;100.00;98226.19;4967677;28;20544;-71
2021/12/31 06:33:55;;;;;;;13.75;5.63;;;8.50;99.90;;;7.63;100.00;98228.88;4966849;28;20159;-71
2021/12/31 06:36:23;;;;;;;13.30;5.45;;;8.50;99.90;;;7.58;100.00;98230.69;4968339;28;20125;-70
2021/12/31 06:38:51;;;;;;;23.77;8.50;;;8.50;99.90;;;7.44;100.00;98235.31;4976402;28;20053;-71
2021/12/31 06:41:20;;;;;;;9.82;4.70;;;8.50;99.90;;;7.48;100.00;98242.97;4954392;28;20058;-71
2021/12/31 06:43:48;;;;;;;12.82;5.13;;;8.50;99.90;;;7.46;100.00;98242.13;4970506;28;20066;-70
2021/12/31 06:46:16;;;;;;;11.27;5.60;;;8.50;99.90;;;7.46;100.00;98241.28;4967157;28;20118;-70
2021/12/31 06:48:44;;;;;;;12.95;6.22;;;8.40;99.90;;;7.38;100.00;98246.59;4969560;28;20051;-70
2021/12/31 06:51:12;;;;;;;13.52;6.60;;;8.40;99.90;;;7.47;100.00;98242.97;4969632;28;20082;-70
2021/12/31 06:53:40;;;;;;;14.45;6.25;;;8.40;99.90;;;7.39;100.00;98231.94;4969965;28;20586;-70
2021/12/31 06:56:10;;;;;;;15.20;8.27;;;8.40;99.90;;;7.25;100.00;98237.34;4964513;28;20051;-70
2021/12/31 06:58:37;;;;;;;19.75;9.43;;;8.30;99.90;;;7.12;100.00;98234.16;4965834;28;20126;-70
2021/12/31 07:01:05;;;;;;;16.77;6.35;;;8.30;99.90;;;7.25;100.00;98227.03;4969575;28;20055;-70
2021/12/31 07:03:33;;;;;;;22.25;9.07;;;8.30;99.90;;;7.13;100.00;98234.13;4967630;28;20106;-70
2021/12/31 07:06:00;;;;;;;13.20;5.78;;;8.20;99.90;;;7.31;100.00;98232.09;4964007;28;20058;-70
2021/12/31 07:08:28;;;;;;;12.02;6.47;;;8.30;99.90;;;7.15;100.00;98218.63;4962715;28;20167;-70
2021/12/31 07:10:56;;;;;;;20.98;10.30;;;8.20;99.90;;;7.07;100.00;98233.38;4967985;28;20063;-70
2021/12/31 07:13:23;;;;;;;20.70;10.05;;;8.20;99.90;;;7.04;100.00;98231.72;4970092;28;20093;-70
2021/12/31 07:15:51;;;;;;;20.15;11.25;;;8.20;99.90;;;7.11;100.00;98229.88;4965163;28;20416;-70
2021/12/31 07:18:21;;;;;;;20.80;10.10;;;8.10;99.90;;;7.07;100.00;98217.88;4971266;28;20460;-70
2021/12/31 07:20:49;;;;;;;18.95;9.02;;;8.10;99.90;;;7.09;100.00;98223.88;4970096;28;20051;-70
2021/12/31 07:23:20;;;;;;;17.75;9.65;;;8.10;99.90;;;7.15;100.00;98231.53;4963394;28;20046;-70
2021/12/31 07:25:49;;;;;;;19.20;9.40;;;8.10;99.90;;;7.16;100.00;98229.78;4967680;28;20496;-70
2021/12/31 07:28:16;;;;;;;19.30;9.88;;;8.10;99.90;;;7.11;100.00;98215.22;4974986;28;20161;-70
2021/12/31 07:30:46;;;;;;;16.83;8.27;;;8.10;99.90;;;7.07;100.00;98207.56;4972105;28;20055;-70
2021/12/31 07:33:19;;;;;;;19.90;10.75;;;8.10;99.90;;;6.91;100.00;98207.00;4973754;28;20047;-70
2021/12/31 07:35:48;;;;;;;19.92;9.38;;;8.10;99.90;;;6.88;100.00;98215.63;4970310;28;20090;-70
2021/12/31 07:38:38;;;;;;;25.77;12.27;;;8.10;99.90;;;6.83;100.00;98217.47;4974374;28;20474;-70
2021/12/31 07:41:06;;;;;;;23.33;10.07;;;8.10;99.90;;;6.84;100.00;98224.34;4972684;28;20503;-70
2021/12/31 07:43:33;;;;;;;14.27;7.00;;;8.00;99.90;;;6.96;100.00;98222.41;4970790;28;20108;-70
2021/12/31 07:46:00;;;;;;;16.92;7.55;;;8.00;99.90;;;7.14;100.00;98227.25;4975001;28;20054;-70
2021/12/31 07:48:28;;;;;;;10.40;5.40;;;8.00;99.90;;;7.12;100.00;98234.16;4970571;28;20503;-70
2021/12/31 07:50:56;;;;;;;11.88;4.85;;;8.00;99.90;;;7.06;100.00;98223.94;4969411;28;20051;-70
2021/12/31 07:53:23;;;;;;;10.77;5.63;;;8.00;99.90;;;6.96;100.00;98240.50;4966990;28;20511;-70
2021/12/31 07:55:50;;;;;;;18.80;10.25;;;8.00;99.90;;;6.88;100.00;98233.72;4973017;28;20098;-70
2021/12/31 07:58:18;;;;;;;19.80;8.88;;;8.00;99.90;;;6.88;100.00;98219.97;4969331;28;20152;-70
2021/12/31 08:00:48;;;;;;;17.27;9.63;;;8.00;99.90;;;6.89;100.00;98225.09;4970045;28;20134;-70
2021/12/31 08:03:16;;;;;;;15.25;7.65;;;7.90;99.90;;;7.01;100.00;98228.34;4969086;28;20069;-70
2021/12/31 08:05:43;;;;;;;15.55;6.80;;;8.10;99.90;;;7.04;100.00;98228.28;4972112;28;20050;-70
2021/12/31 08:08:12;;;;;;;22.10;7.40;;;8.20;99.90;;;7.19;100.00;98225.44;4969964;28;20390;-70
2021/12/31 08:10:40;;;;;;;13.40;6.13;;;8.30;99.90;;;7.28;100.00;98235.59;4970347;28;20450;-70
2021/12/31 08:13:25;;;;;;;16.17;7.35;;;8.40;99.90;;;7.38;100.00;98248.31;4972694;28;20152;-70
2021/12/31 08:15:56;;;;;;;12.23;5.97;;;8.50;99.90;;;7.40;100.00;98244.81;4970647;28;20157;-70
2021/12/31 08:18:26;;;;;;;13.82;6.38;;;8.50;99.90;;;7.47;100.00;98245.56;4970308;28;20038;-70
2021/12/31 08:20:53;;;;;;;19.20;8.70;;;8.50;99.90;;;7.52;100.00;98244.56;4972357;28;20082;-70
2021/12/31 08:23:21;;;;;;;37.92;16.90;;;8.50;99.90;;;7.46;100.00;98249.88;4973930;28;20077;-70
2021/12/31 08:25:48;;;;;;;20.90;9.75;;;8.60;99.90;;;7.59;100.00;98250.47;4962796;28;20047;-70
2021/12/31 08:28:16;;;;;;;20.58;9.05;;;8.60;99.90;;;7.60;100.00;98248.75;4964651;28;20110;-70
2021/12/31 08:30:44;;;;;;;16.23;8.38;;;8.60;99.90;;;7.66;100.00;98253.78;4964884;28;20043;-70
2021/12/31 08:33:11;;;;;;;14.13;7.38;;;8.60;99.90;;;7.59;100.00;98250.47;4970123;28;20047;-70
2021/12/31 08:35:39;;;;;;;12.52;6.40;;;8.70;99.90;;;7.66;100.00;98246.03;4966143;28;20121;-70
2021/12/31 08:38:06;;;;;;;11.93;5.40;;;8.70;99.90;;;7.71;100.00;98245.09;4968174;28;20058;-70
2021/12/31 08:40:35;;;;;;;11.93;5.85;;;8.80;99.90;;;7.78;100.00;98247.50;4969040;28;20443;-70
2021/12/31 08:43:03;;;;;;;7.28;3.72;;;8.90;99.90;;;7.83;100.00;98245.72;4966909;28;20125;-70
2021/12/31 08:45:32;;;;;;;11.82;6.13;;;9.00;99.90;;;7.95;100.00;98233.34;4965861;28;20121;-70
2021/12/31 08:48:01;;;;;;;16.13;10.40;;;9.10;99.90;;;7.99;100.00;98244.50;4966306;28;20055;-70
2021/12/31 08:50:29;;;;;;;8.48;5.38;;;9.10;99.90;;;8.13;100.00;98245.03;4967105;28;20055;-70
2021/12/31 08:52:56;;;;;;;35.15;17.77;;;9.10;99.90;;;8.18;100.00;98250.09;4970380;28;20218;-70
2021/12/31 08:55:24;;;;;;;20.27;9.25;;;9.20;99.90;;;8.24;100.00;98251.72;4962648;28;20065;-70
2021/12/31 08:57:52;;;;;;;22.42;11.95;;;9.30;99.90;;;8.24;100.00;98249.13;4968157;28;20392;-70
2021/12/31 09:00:19;;;;;;;43.60;25.45;;;9.40;99.90;;;8.27;100.00;98242.13;4966168;28;20117;-70
2021/12/31 09:02:48;;;;;;;8.57;3.55;;;9.40;99.90;;;8.33;100.00;98248.94;4963008;28;20635;-70
2021/12/31 09:05:17;;;;;;;9.10;4.75;;;9.40;99.90;;;8.25;100.00;98238.72;4971962;28;20134;-70
2021/12/31 09:07:44;;;;;;;7.15;3.60;;;9.40;99.90;;;8.32;100.00;98249.78;4971639;28;20438;-70
2021/12/31 09:10:13;;;;;;;7.60;3.80;;;9.40;99.90;;;8.37;100.00;98246.22;4973611;28;20078;-70
2021/12/31 09:12:44;;;;;;;7.50;3.03;;;9.50;99.90;;;8.38;100.00;98247.91;4973088;28;20510;-70
2021/12/31 09:15:11;;;;;;;6.28;2.50;;;9.60;99.90;;;8.46;100.00;98236.56;4971251;28;20050;-71
2021/12/31 09:17:39;;;;;;;6.05;1.70;;;9.50;99.90;;;8.50;100.00;98233.88;4965539;28;20123;-70
2021/12/31 09:20:07;;;;;;;5.22;2.05;;;9.60;99.90;;;8.54;100.00;98226.91;4962881;28;20141;-70
2021/12/31 09:22:35;;;;;;;6.03;1.98;;;9.60;99.90;;;8.56;100.00;98219.97;4968989;28;20042;-70
2021/12/31 09:25:04;;;;;;;6.50;2.00;;;9.70;99.90;;;8.67;100.00;98228.31;4965812;28;20046;-70
2021/12/31 09:27:31;;;;;;;7.22;2.15;;;9.70;99.90;;;8.67;100.00;98225.72;4959957;28;20055;-70
2021/12/31 09:29:59;;;;;;;8.80;2.72;;;9.80;99.90;;;8.74;100.00;98219.50;4967728;28;20043;-70
2021/12/31 09:32:27;;;;;;;4.45;1.65;;;9.80;99.90;;;8.72;100.00;98216.09;4968117;28;20129;-70
2021/12/31 09:34:54;;;;;;;6.53;1.73;;;9.80;99.90;;;8.78;100.00;98222.84;4964925;28;20121;-70
2021/12/31 09:37:22;;;;;;;8.27;2.47;;;9.90;99.90;;;8.88;100.00;98221.75;4970667;28;20082;-70
2021/12/31 09:39:49;;;;;;;7.35;2.60;;;10.00;99.90;;;9.09;100.00;98229.84;4966534;28;20051;-70
2021/12/31 09:42:17;;;;;;;6.28;2.40;;;10.10;99.90;;;9.11;100.00;98225.47;4968620;28;20047;-70
2021/12/31 09:44:49;;;;;;;11.15;3.88;;;10.30;99.90;;;9.14;100.00;98227.97;4967932;28;20051;-70
2021/12/31 09:47:18;;;;;;;9.63;2.30;;;10.30;99.90;;;9.23;100.00;98225.16;4966261;28;20062;-70
2021/12/31 09:49:48;;;;;;;5.63;1.77;;;10.40;99.90;;;9.33;100.00;98215.41;4950865;28;20058;-70
2021/12/31 09:52:17;;;;;;;5.22;2.20;;;10.40;99.90;;;9.29;100.00;98214.63;4963254;28;20055;-70
2021/12/31 09:54:48;;;;;;;5.20;2.28;;;10.60;99.90;;;9.43;100.00;98214.25;4967404;28;20051;-70
2021/12/31 09:57:21;;;;;;;5.43;2.05;;;10.60;99.90;;;9.56;100.00;98209.59;4964670;28;20129;-70
2021/12/31 09:59:49;;;;;;;6.75;2.03;;;10.70;99.90;;;9.58;100.00;98211.22;4967219;28;20499;-70
2021/12/31 10:02:33;;;;;;;4.60;2.15;;;10.90;99.90;;;9.79;100.00;98219.28;4965464;28;20066;-70
2021/12/31 10:05:04;;;;;;;3.53;1.90;;;10.90;99.90;;;9.67;100.00;98204.06;4984447;28;20090;-70
2021/12/31 10:07:33;;;;;;;9.50;2.42;;;11.00;99.90;;;9.86;100.00;98205.25;4989208;28;20050;-70
2021/12/31 10:10:03;;;;;;;5.40;1.80;;;11.20;99.90;;;9.97;100.00;98198.00;4982474;28;20058;-70
2021/12/31 10:12:58;;;;;;;6.68;2.38;;;11.20;99.90;;;10.00;100.00;98192.69;4986552;28;20050;-70
2021/12/31 10:15:26;;;;;;;5.55;2.22;;;11.30;99.90;;;10.07;100.00;98198.56;4982734;28;20051;-70
2021/12/31 10:17:55;;;;;;;7.82;2.42;;;11.30;99.90;;;9.98;100.00;98194.50;4961764;28;20145;-70
2021/12/31 10:20:23;;;;;;;7.75;3.65;;;11.30;99.90;;;9.97;100.00;98197.16;4977320;28;20046;-70
2021/12/31 10:22:51;;;;;;;5.75;2.33;;;11.30;99.90;;;9.89;100.00;98215.50;4986256;28;20114;-70
2021/12/31 10:25:21;;;;;;;6.68;2.40;;;11.30;99.90;;;9.93;100.00;98217.13;4995442;28;20378;-70
2021/12/31 10:27:51;;;;;;;6.45;1.60;;;11.30;99.90;;;9.83;100.00;98210.53;4982629;28;20054;-70